Decoded Metar for KMIV (MILLVILLE in NJ, USA) (IATA:MIV) | Meteo·Mobile Aviation Weather
aviador You're here:

KMIV Decoded Metar

MILLVILLE in NJ, USA
Report Time2018-09-18 20:42:00
UTC Time2018-09-18 20:59:53
Flight Rules mvfr MVFR
Wind360° at 07 kt
W.Decomp.*RWY 32: 4.4 kt HW 5.4 kt RCW
RWY 10: 0.1 kt HW 7 kt LCW
Visibility9999 m
Phenomena:N/A
Clouds:Scattered 012 Hf
Broken 018 Hf
Overcast 090 Hf
Expected CloudBase > 400 ft AGL from Temp-Dew spread
Ceiling1,800 ft
Temp25°C (ISA +10)
Dew Point24°C (94% RH)
QNH1006 hPa
Density Alt1,880 ft
Elevation75 ft
Report Wrong Elevation
Raw Report
KMIV 182042Z AUTO 36007KT 10SM SCT012 BKN018 OVC090 25/24 A2972
RMK AO2 LTG DSNT NE-SE RAE37 P0001 T02500239=

Extra information for KMIV:More info

Metar Taf Metar & Taf Last 4 Metars F.Rules Stats Wind Profile Meteogram Temp Stats Airport Information Weather charts Add Link Nearby VenuesMetar ALERT Operation Metar Decoded Social comments

AIRNAV info for KMIV